sensor_id;sensor_type;location;lat;lon;timestamp;pressure;altitude;pressure_sealevel;temperature;humidity
10340;BME280;5215;48.676;9.022;2022-07-19T00:01:10;96852.72;;;19.51;54.15
10340;BME280;5215;48.676;9.022;2022-07-19T00:03:37;96848.91;;;19.47;54.20
10340;BME280;5215;48.676;9.022;2022-07-19T00:06:04;96846.00;;;19.49;53.59
10340;BME280;5215;48.676;9.022;2022-07-19T00:08:30;96852.59;;;19.46;54.34
10340;BME280;5215;48.676;9.022;2022-07-19T00:10:57;96851.88;;;19.39;54.98
10340;BME280;5215;48.676;9.022;2022-07-19T00:13:25;96858.13;;;19.33;55.63
10340;BME280;5215;48.676;9.022;2022-07-19T00:15:51;96843.50;;;19.24;56.18
10340;BME280;5215;48.676;9.022;2022-07-19T00:18:18;96842.59;;;19.30;56.49
10340;BME280;5215;48.676;9.022;2022-07-19T00:20:44;96846.75;;;19.26;56.44
10340;BME280;5215;48.676;9.022;2022-07-19T00:23:11;96850.44;;;19.25;56.22
10340;BME280;5215;48.676;9.022;2022-07-19T00:25:38;96843.50;;;19.24;55.78
10340;BME280;5215;48.676;9.022;2022-07-19T00:28:05;96836.13;;;19.26;55.49
10340;BME280;5215;48.676;9.022;2022-07-19T00:30:33;96843.50;;;19.24;55.61
10340;BME280;5215;48.676;9.022;2022-07-19T00:33:00;96841.94;;;19.16;55.97
10340;BME280;5215;48.676;9.022;2022-07-19T00:35:29;96842.78;;;19.17;55.82
10340;BME280;5215;48.676;9.022;2022-07-19T00:37:56;96841.59;;;19.13;56.28
10340;BME280;5215;48.676;9.022;2022-07-19T00:40:23;96835.19;;;19.02;57.56
10340;BME280;5215;48.676;9.022;2022-07-19T00:42:50;96839.78;;;18.95;57.59
10340;BME280;5215;48.676;9.022;2022-07-19T00:45:17;96841.94;;;18.86;57.99
10340;BME280;5215;48.676;9.022;2022-07-19T00:47:45;84798.72;;;18.79;100.00
10340;BME280;5215;48.676;9.022;2022-07-19T00:50:11;96849.19;;;18.79;58.50
10340;BME280;5215;48.676;9.022;2022-07-19T00:52:39;96840.03;;;18.75;58.78
10340;BME280;5215;48.676;9.022;2022-07-19T00:55:07;96849.91;;;18.68;59.41
10340;BME280;5215;48.676;9.022;2022-07-19T00:57:35;96845.91;;;18.58;59.49
10340;BME280;5215;48.676;9.022;2022-07-19T01:00:05;96851.09;;;18.53;59.17
10340;BME280;5215;48.676;9.022;2022-07-19T01:02:32;96845.47;;;18.61;58.56
10340;BME280;5215;48.676;9.022;2022-07-19T01:05:00;96851.16;;;18.65;57.95
10340;BME280;5215;48.676;9.022;2022-07-19T01:07:27;96854.03;;;18.64;57.96
10340;BME280;5215;48.676;9.022;2022-07-19T01:09:54;96850.81;;;18.61;57.68
10340;BME280;5215;48.676;9.022;2022-07-19T01:12:21;96859.44;;;18.57;57.54
10340;BME280;5215;48.676;9.022;2022-07-19T01:14:48;96855.81;;;18.51;58.09
10340;BME280;5215;48.676;9.022;2022-07-19T01:17:15;96856.53;;;18.40;59.07
10340;BME280;5215;48.676;9.022;2022-07-19T01:19:41;96862.28;;;18.37;59.38
10340;BME280;5215;48.676;9.022;2022-07-19T01:22:10;96850.03;;;18.36;60.00
10340;BME280;5215;48.676;9.022;2022-07-19T01:24:36;96859.19;;;18.40;59.50
10340;BME280;5215;48.676;9.022;2022-07-19T01:27:03;96849.88;;;18.31;59.72
10340;BME280;5215;48.676;9.022;2022-07-19T01:29:31;96846.63;;;18.29;59.41
10340;BME280;5215;48.676;9.022;2022-07-19T01:31:57;96847.50;;;18.23;59.37
10340;BME280;5215;48.676;9.022;2022-07-19T01:34:24;96845.88;;;18.22;59.30
10340;BME280;5215;48.676;9.022;2022-07-19T01:36:51;96841.38;;;18.22;59.20
10340;BME280;5215;48.676;9.022;2022-07-19T01:39:18;96845.88;;;18.22;59.06
10340;BME280;5215;48.676;9.022;2022-07-19T01:41:45;96843.38;;;18.27;59.56
10340;BME280;5215;48.676;9.022;2022-07-19T01:44:12;96844.25;;;18.21;59.71
10340;BME280;5215;48.676;9.022;2022-07-19T01:46:38;96845.31;;;18.20;59.88
10340;BME280;5215;48.676;9.022;2022-07-19T01:49:05;96843.06;;;18.17;60.20
10340;BME280;5215;48.676;9.022;2022-07-19T01:51:32;96841.88;;;18.13;60.77
10340;BME280;5215;48.676;9.022;2022-07-19T01:53:59;96840.34;;;18.05;61.13
10340;BME280;5215;48.676;9.022;2022-07-19T01:56:27;96839.88;;;18.08;60.76
10340;BME280;5215;48.676;9.022;2022-07-19T01:58:53;96839.88;;;18.08;60.84
10340;BME280;5215;48.676;9.022;2022-07-19T02:01:20;96836.25;;;18.02;61.08
10340;BME280;5215;48.676;9.022;2022-07-19T02:03:46;96838.44;;;17.87;61.91
10340;BME280;5215;48.676;9.022;2022-07-19T02:06:13;96832.81;;;17.77;62.62
10340;BME280;5215;48.676;9.022;2022-07-19T02:08:40;96829.34;;;17.70;63.69
10340;BME280;5215;48.676;9.022;2022-07-19T02:11:07;96834.09;;;17.61;63.91
10340;BME280;5215;48.676;9.022;2022-07-19T02:13:49;96836.97;;;17.59;64.25
10340;BME280;5215;48.676;9.022;2022-07-19T02:16:16;96836.56;;;17.63;64.08
10340;BME280;5215;48.676;9.022;2022-07-19T02:18:43;96832.66;;;17.65;63.68
10340;BME280;5215;48.676;9.022;2022-07-19T02:21:09;96834.09;;;17.61;64.15
10340;BME280;5215;48.676;9.022;2022-07-19T02:23:36;96836.97;;;17.59;63.82
10340;BME280;5215;48.676;9.022;2022-07-19T02:26:02;96821.94;;;17.53;63.34
10340;BME280;5215;48.676;9.022;2022-07-19T02:28:29;96818.66;;;17.51;63.05
10340;BME280;5215;48.676;9.022;2022-07-19T02:30:57;96814.81;;;17.47;63.04
10340;BME280;5215;48.676;9.022;2022-07-19T02:33:23;96821.47;;;17.25;63.19
10340;BME280;5215;48.676;9.022;2022-07-19T02:35:50;96818.06;;;17.18;63.70
10340;BME280;5215;48.676;9.022;2022-07-19T02:38:17;96818.41;;;17.28;64.04
10340;BME280;5215;48.676;9.022;2022-07-19T02:40:43;96824.13;;;17.25;64.53
10340;BME280;5215;48.676;9.022;2022-07-19T02:43:10;96813.50;;;17.25;64.21
10340;BME280;5215;48.676;9.022;2022-07-19T02:45:36;96817.66;;;17.21;64.94
10340;BME280;5215;48.676;9.022;2022-07-19T02:48:04;96820.72;;;17.18;65.89
10340;BME280;5215;48.676;9.022;2022-07-19T02:50:31;96814.22;;;17.14;65.94
10340;BME280;5215;48.676;9.022;2022-07-19T02:52:58;96811.09;;;17.23;65.67
10340;BME280;5215;48.676;9.022;2022-07-19T02:55:25;96813.31;;;17.26;65.15
10340;BME280;5215;48.676;9.022;2022-07-19T02:57:51;96816.38;;;17.30;64.67
10340;BME280;5215;48.676;9.022;2022-07-19T03:00:18;96813.09;;;17.28;64.48
10340;BME280;5215;48.676;9.022;2022-07-19T03:02:45;96815.19;;;17.19;64.10
10340;BME280;5215;48.676;9.022;2022-07-19T03:05:13;96818.94;;;17.12;64.00
10340;BME280;5215;48.676;9.022;2022-07-19T03:07:40;96814.63;;;17.11;64.67
10340;BME280;5215;48.676;9.022;2022-07-19T03:10:07;96802.22;;;17.04;64.82
10340;BME280;5215;48.676;9.022;2022-07-19T03:12:34;96809.59;;;17.02;64.96
10340;BME280;5215;48.676;9.022;2022-07-19T03:15:02;96803.84;;;17.05;64.76
10340;BME280;5215;48.676;9.022;2022-07-19T03:17:28;96800.16;;;17.06;64.80
10340;BME280;5215;48.676;9.022;2022-07-19T03:19:55;96800.59;;;17.03;64.96
10340;BME280;5215;48.676;9.022;2022-07-19T03:22:23;96800.63;;;16.97;65.36
10340;BME280;5215;48.676;9.022;2022-07-19T03:24:50;96801.88;;;16.94;65.22
10340;BME280;5215;48.676;9.022;2022-07-19T03:27:17;96796.16;;;16.97;65.02
10340;BME280;5215;48.676;9.022;2022-07-19T03:29:43;96798.00;;;16.90;65.71
10340;BME280;5215;48.676;9.022;2022-07-19T03:32:10;96804.34;;;16.89;65.77
10340;BME280;5215;48.676;9.022;2022-07-19T03:34:37;96804.75;;;16.86;66.08
10340;BME280;5215;48.676;9.022;2022-07-19T03:37:03;96800.91;;;16.82;66.18
10340;BME280;5215;48.676;9.022;2022-07-19T03:39:31;96795.78;;;16.87;65.76
10340;BME280;5215;48.676;9.022;2022-07-19T03:41:58;96795.78;;;16.87;65.68
10340;BME280;5215;48.676;9.022;2022-07-19T03:44:24;96798.28;;;16.75;66.37
10340;BME280;5215;48.676;9.022;2022-07-19T03:46:51;96796.03;;;16.79;66.70
10340;BME280;5215;48.676;9.022;2022-07-19T03:49:17;96806.84;;;16.71;67.53
10340;BME280;5215;48.676;9.022;2022-07-19T03:51:44;96806.03;;;16.64;68.26
10340;BME280;5215;48.676;9.022;2022-07-19T03:54:10;96809.53;;;16.57;68.92
10340;BME280;5215;48.676;9.022;2022-07-19T03:56:38;96807.75;;;16.51;68.57
10340;BME280;5215;48.676;9.022;2022-07-19T03:59:05;96806.91;;;16.57;68.34
10340;BME280;5215;48.676;9.022;2022-07-19T04:01:32;96801.00;;;16.55;68.48
10340;BME280;5215;48.676;9.022;2022-07-19T04:03:58;96801.78;;;16.63;68.18
10340;BME280;5215;48.676;9.022;2022-07-19T04:06:25;96803.22;;;16.65;67.73
10340;BME280;5215;48.676;9.022;2022-07-19T04:08:52;96802.34;;;16.71;67.28
10340;BME280;5215;48.676;9.022;2022-07-19T04:11:18;96801.13;;;16.74;67.18
10340;BME280;5215;48.676;9.022;2022-07-19T04:13:46;96807.47;;;16.73;66.80
10340;BME280;5215;48.676;9.022;2022-07-19T04:16:13;96803.19;;;16.72;67.56
10340;BME280;5215;48.676;9.022;2022-07-19T04:18:39;96801.13;;;16.74;67.76
10340;BME280;5215;48.676;9.022;2022-07-19T04:21:06;96812.94;;;16.78;68.03
10340;BME280;5215;48.676;9.022;2022-07-19T04:23:33;96799.09;;;16.76;68.56
10340;BME280;5215;48.676;9.022;2022-07-19T04:25:59;96806.03;;;16.77;68.91
10340;BME280;5215;48.676;9.022;2022-07-19T04:28:26;96812.94;;;16.78;69.22
10340;BME280;5215;48.676;9.022;2022-07-19T04:30:54;96815.41;;;16.79;69.53
10340;BME280;5215;48.676;9.022;2022-07-19T04:33:21;96814.59;;;16.79;69.95
10340;BME280;5215;48.676;9.022;2022-07-19T04:35:48;96810.47;;;16.83;69.89
10340;BME280;5215;48.676;9.022;2022-07-19T04:38:14;96812.72;;;16.86;69.77
10340;BME280;5215;48.676;9.022;2022-07-19T04:40:41;96816.16;;;16.93;69.55
10340;BME280;5215;48.676;9.022;2022-07-19T04:43:08;96812.06;;;16.97;69.80
10340;BME280;5215;48.676;9.022;2022-07-19T04:45:34;96816.53;;;17.03;69.53
10340;BME280;5215;48.676;9.022;2022-07-19T04:48:03;96817.72;;;17.07;69.45
10340;BME280;5215;48.676;9.022;2022-07-19T04:50:29;96817.28;;;17.11;69.71
10340;BME280;5215;48.676;9.022;2022-07-19T04:52:56;96817.66;;;17.21;69.43
10340;BME280;5215;48.676;9.022;2022-07-19T04:55:23;96819.69;;;17.19;69.92
10340;BME280;5215;48.676;9.022;2022-07-19T04:57:49;96811.50;;;17.20;69.90
10340;BME280;5215;48.676;9.022;2022-07-19T05:00:16;96815.16;;;17.26;69.97
10340;BME280;5215;48.676;9.022;2022-07-19T05:02:43;96818.56;;;17.33;69.54
10340;BME280;5215;48.676;9.022;2022-07-19T05:05:11;96815.06;;;17.39;68.93
10340;BME280;5215;48.676;9.022;2022-07-19T05:07:39;96813.75;;;17.48;69.00
10340;BME280;5215;48.676;9.022;2022-07-19T05:10:07;96819.44;;;17.58;68.64
10340;BME280;5215;48.676;9.022;2022-07-19T05:12:34;96803.00;;;17.68;68.31
10340;BME280;5215;48.676;9.022;2022-07-19T05:15:00;96817.91;;;17.94;72.09
10340;BME280;5215;48.676;9.022;2022-07-19T05:17:27;96806.78;;;18.29;72.63
10340;BME280;5215;48.676;9.022;2022-07-19T05:19:54;96811.94;;;18.60;69.84
10340;BME280;5215;48.676;9.022;2022-07-19T05:22:22;96802.47;;;18.83;66.69
10340;BME280;5215;48.676;9.022;2022-07-19T05:24:51;96806.41;;;19.10;65.11
10340;BME280;5215;48.676;9.022;2022-07-19T05:27:17;96811.00;;;19.33;63.92
10340;BME280;5215;48.676;9.022;2022-07-19T05:29:44;96809.56;;;19.49;63.27
10340;BME280;5215;48.676;9.022;2022-07-19T05:32:11;96815.84;;;19.67;62.68
10340;BME280;5215;48.676;9.022;2022-07-19T05:34:37;96817.25;;;19.81;61.98
10340;BME280;5215;48.676;9.022;2022-07-19T05:37:04;96813.31;;;19.95;61.30
10340;BME280;5215;48.676;9.022;2022-07-19T05:39:32;96813.59;;;20.05;60.91
10340;BME280;5215;48.676;9.022;2022-07-19T05:41:58;96814.63;;;20.16;60.32
10340;BME280;5215;48.676;9.022;2022-07-19T05:44:25;96804.41;;;20.25;59.77
10340;BME280;5215;48.676;9.022;2022-07-19T05:46:52;96807.84;;;20.37;59.33
10340;BME280;5215;48.676;9.022;2022-07-19T05:49:18;96812.41;;;20.48;59.08
10340;BME280;5215;48.676;9.022;2022-07-19T05:51:45;96814.22;;;20.59;58.72
10340;BME280;5215;48.676;9.022;2022-07-19T05:54:11;96819.31;;;20.73;58.43
10340;BME280;5215;48.676;9.022;2022-07-19T05:56:39;96815.78;;;20.84;57.87
10340;BME280;5215;48.676;9.022;2022-07-19T05:59:06;96825.03;;;20.93;57.07
10340;BME280;5215;48.676;9.022;2022-07-19T06:01:33;96822.59;;;21.03;56.66
10340;BME280;5215;48.676;9.022;2022-07-19T06:04:00;96817.19;;;21.15;56.64
10340;BME280;5215;48.676;9.022;2022-07-19T06:06:27;96823.31;;;21.27;56.26
10340;BME280;5215;48.676;9.022;2022-07-19T06:08:54;96812.56;;;21.39;56.01
10340;BME280;5215;48.676;9.022;2022-07-19T06:11:21;96814.38;;;21.50;56.57
10340;BME280;5215;48.676;9.022;2022-07-19T06:13:50;96814.06;;;21.63;55.83
10340;BME280;5215;48.676;9.022;2022-07-19T06:16:17;96811.31;;;21.75;55.92
10340;BME280;5215;48.676;9.022;2022-07-19T06:18:43;96808.56;;;21.87;55.41
10340;BME280;5215;48.676;9.022;2022-07-19T06:21:13;96815.22;;;22.01;55.69
10340;BME280;5215;48.676;9.022;2022-07-19T06:23:41;96819.75;;;22.18;55.74
10340;BME280;5215;48.676;9.022;2022-07-19T06:26:09;96817.06;;;22.34;55.44
10340;BME280;5215;48.676;9.022;2022-07-19T06:28:35;96814.31;;;22.51;54.64
10340;BME280;5215;48.676;9.022;2022-07-19T06:31:06;96817.34;;;22.77;48.77
10340;BME280;5215;48.676;9.022;2022-07-19T06:33:33;96816.56;;;23.03;44.86
10340;BME280;5215;48.676;9.022;2022-07-19T06:35:59;96818.03;;;23.38;43.78
10340;BME280;5215;48.676;9.022;2022-07-19T06:38:26;96813.66;;;23.59;43.09
10340;BME280;5215;48.676;9.022;2022-07-19T06:40:53;96819.44;;;23.73;42.34
10340;BME280;5215;48.676;9.022;2022-07-19T06:43:19;96810.47;;;23.89;42.27
10340;BME280;5215;48.676;9.022;2022-07-19T06:45:46;96817.53;;;24.05;42.41
10340;BME280;5215;48.676;9.022;2022-07-19T06:48:14;96817.63;;;24.15;41.60
10340;BME280;5215;48.676;9.022;2022-07-19T06:50:40;96813.13;;;24.26;41.48
10340;BME280;5215;48.676;9.022;2022-07-19T06:53:07;96814.50;;;24.34;41.25
10340;BME280;5215;48.676;9.022;2022-07-19T06:55:34;96811.13;;;24.49;41.98
10340;BME280;5215;48.676;9.022;2022-07-19T06:58:01;96814.69;;;24.64;41.46
10340;BME280;5215;48.676;9.022;2022-07-19T07:00:28;96808.34;;;24.81;41.05
10340;BME280;5215;48.676;9.022;2022-07-19T07:02:55;96806.22;;;24.93;39.03
10340;BME280;5215;48.676;9.022;2022-07-19T07:05:23;96813.81;;;25.11;39.57
10340;BME280;5215;48.676;9.022;2022-07-19T07:07:49;96813.84;;;25.22;37.87
10340;BME280;5215;48.676;9.022;2022-07-19T07:10:17;96813.63;;;25.38;38.11
10340;BME280;5215;48.676;9.022;2022-07-19T07:12:44;96817.41;;;25.48;37.85
10340;BME280;5215;48.676;9.022;2022-07-19T07:15:10;96812.81;;;25.58;37.50
10340;BME280;5215;48.676;9.022;2022-07-19T07:17:37;96809.63;;;25.92;37.36
10340;BME280;5215;48.676;9.022;2022-07-19T07:20:05;96803.97;;;26.04;35.74
10340;BME280;5215;48.676;9.022;2022-07-19T07:22:35;96801.78;;;26.26;35.88
10340;BME280;5215;48.676;9.022;2022-07-19T07:25:03;96804.75;;;26.45;35.87
10340;BME280;5215;48.676;9.022;2022-07-19T07:27:29;96807.91;;;26.62;35.95
10340;BME280;5215;48.676;9.022;2022-07-19T07:29:56;96808.19;;;26.56;35.82
10340;BME280;5215;48.676;9.022;2022-07-19T07:32:23;96800.88;;;26.66;34.93
10340;BME280;5215;48.676;9.022;2022-07-19T07:34:52;96804.56;;;26.86;35.06
10340;BME280;5215;48.676;9.022;2022-07-19T07:37:18;96803.41;;;27.07;35.08
10340;BME280;5215;48.676;9.022;2022-07-19T07:39:46;96797.66;;;27.29;34.46
10340;BME280;5215;48.676;9.022;2022-07-19T07:42:13;96801.25;;;27.14;34.04
10340;BME280;5215;48.676;9.022;2022-07-19T07:44:40;96796.38;;;27.16;34.08
10340;BME280;5215;48.676;9.022;2022-07-19T07:47:07;96792.56;;;27.23;33.91
10340;BME280;5215;48.676;9.022;2022-07-19T07:49:34;96793.97;;;27.54;34.40
10340;BME280;5215;48.676;9.022;2022-07-19T07:52:01;96783.63;;;27.71;33.28
10340;BME280;5215;48.676;9.022;2022-07-19T07:54:28;96788.91;;;27.82;32.97
10340;BME280;5215;48.676;9.022;2022-07-19T07:56:56;96797.88;;;28.06;32.60
10340;BME280;5215;48.676;9.022;2022-07-19T07:59:22;96795.66;;;28.13;32.37
10340;BME280;5215;48.676;9.022;2022-07-19T08:01:49;96784.63;;;28.10;32.19
10340;BME280;5215;48.676;9.022;2022-07-19T08:04:16;96788.28;;;28.48;32.40
10340;BME280;5215;48.676;9.022;2022-07-19T08:06:42;96778.34;;;28.67;32.43
10340;BME280;5215;48.676;9.022;2022-07-19T08:09:09;96787.31;;;28.87;32.03
10340;BME280;5215;48.676;9.022;2022-07-19T08:11:35;96786.09;;;28.74;31.42
10340;BME280;5215;48.676;9.022;2022-07-19T08:14:03;96781.16;;;29.05;31.47
10340;BME280;5215;48.676;9.022;2022-07-19T08:16:30;96779.69;;;29.13;30.71
10340;BME280;5215;48.676;9.022;2022-07-19T08:18:57;96776.63;;;29.38;31.06
10340;BME280;5215;48.676;9.022;2022-07-19T08:21:23;96781.00;;;29.15;30.17
10340;BME280;5215;48.676;9.022;2022-07-19T08:23:50;96784.59;;;29.30;30.03
10340;BME280;5215;48.676;9.022;2022-07-19T08:26:19;96777.25;;;29.49;29.73
10340;BME280;5215;48.676;9.022;2022-07-19T08:28:45;96785.59;;;29.53;29.78
10340;BME280;5215;48.676;9.022;2022-07-19T08:31:14;96775.19;;;29.79;30.16
10340;BME280;5215;48.676;9.022;2022-07-19T08:33:41;96776.41;;;29.86;29.20
10340;BME280;5215;48.676;9.022;2022-07-19T08:36:08;96777.56;;;29.99;29.70
10340;BME280;5215;48.676;9.022;2022-07-19T08:38:35;96777.09;;;30.24;29.67
10340;BME280;5215;48.676;9.022;2022-07-19T08:41:01;96764.00;;;30.32;27.94
10340;BME280;5215;48.676;9.022;2022-07-19T08:43:29;96765.47;;;30.24;28.19
10340;BME280;5215;48.676;9.022;2022-07-19T08:45:58;96771.31;;;30.17;28.94
10340;BME280;5215;48.676;9.022;2022-07-19T08:48:26;96767.59;;;30.41;28.02
10340;BME280;5215;48.676;9.022;2022-07-19T08:50:53;96777.69;;;30.21;27.81
10340;BME280;5215;48.676;9.022;2022-07-19T08:53:20;96776.22;;;30.43;28.23
10340;BME280;5215;48.676;9.022;2022-07-19T08:55:47;96767.88;;;30.53;27.87
10340;BME280;5215;48.676;9.022;2022-07-19T08:58:15;96771.72;;;30.80;28.34
10340;BME280;5215;48.676;9.022;2022-07-19T09:00:41;96774.09;;;30.95;28.07
10340;BME280;5215;48.676;9.022;2022-07-19T09:03:07;96773.72;;;30.88;28.38
10340;BME280;5215;48.676;9.022;2022-07-19T09:05:35;96775.63;;;31.01;27.89
10340;BME280;5215;48.676;9.022;2022-07-19T09:08:07;96783.59;;;31.56;28.06
10340;BME280;5215;48.676;9.022;2022-07-19T09:10:36;96776.81;;;31.45;26.80
10340;BME280;5215;48.676;9.022;2022-07-19T09:13:06;96784.69;;;31.33;27.72
10340;BME280;5215;48.676;9.022;2022-07-19T09:15:40;96776.22;;;31.48;27.78
10340;BME280;5215;48.676;9.022;2022-07-19T09:18:10;96778.78;;;31.75;28.40
10340;BME280;5215;48.676;9.022;2022-07-19T09:20:38;96781.38;;;32.03;27.34
10340;BME280;5215;48.676;9.022;2022-07-19T09:23:06;96775.72;;;32.13;27.00
10340;BME280;5215;48.676;9.022;2022-07-19T09:25:37;96778.22;;;32.41;27.23
10340;BME280;5215;48.676;9.022;2022-07-19T09:28:05;96770.31;;;32.62;26.74
10340;BME280;5215;48.676;9.022;2022-07-19T09:30:34;96768.03;;;32.15;26.33
10340;BME280;5215;48.676;9.022;2022-07-19T09:33:10;96775.16;;;32.65;26.31
10340;BME280;5215;48.676;9.022;2022-07-19T09:35:40;96776.31;;;32.90;26.35
10340;BME280;5215;48.676;9.022;2022-07-19T09:38:25;96769.78;;;32.91;25.96
10340;BME280;5215;48.676;9.022;2022-07-19T09:40:54;96767.69;;;32.88;25.76
10340;BME280;5215;48.676;9.022;2022-07-19T09:43:21;96767.75;;;33.22;26.17
10340;BME280;5215;48.676;9.022;2022-07-19T09:45:51;96767.75;;;33.57;26.70
10340;BME280;5215;48.676;9.022;2022-07-19T09:48:18;96761.00;;;33.81;26.88
10340;BME280;5215;48.676;9.022;2022-07-19T09:50:47;96764.91;;;33.62;24.94
10340;BME280;5215;48.676;9.022;2022-07-19T09:53:18;96759.47;;;33.45;24.85
10340;BME280;5215;48.676;9.022;2022-07-19T09:55:46;96753.84;;;33.67;25.33
10340;BME280;5215;48.676;9.022;2022-07-19T09:58:14;96757.50;;;33.71;25.24
10340;BME280;5215;48.676;9.022;2022-07-19T10:00:42;96746.31;;;33.30;25.61
10340;BME280;5215;48.676;9.022;2022-07-19T10:03:09;96748.56;;;33.45;24.89
10340;BME280;5215;48.676;9.022;2022-07-19T10:05:37;96755.59;;;33.63;25.32
10340;BME280;5215;48.676;9.022;2022-07-19T10:08:05;96755.22;;;33.91;24.56
10340;BME280;5215;48.676;9.022;2022-07-19T10:10:32;96756.81;;;34.09;25.60
10340;BME280;5215;48.676;9.022;2022-07-19T10:13:00;96749.91;;;34.03;25.41
10340;BME280;5215;48.676;9.022;2022-07-19T10:15:32;96753.00;;;33.75;25.35
10340;BME280;5215;48.676;9.022;2022-07-19T10:18:07;96743.41;;;33.78;25.15
10340;BME280;5215;48.676;9.022;2022-07-19T10:20:36;96745.81;;;33.36;24.92
10340;BME280;5215;48.676;9.022;2022-07-19T10:23:06;96740.38;;;33.28;24.86
10340;BME280;5215;48.676;9.022;2022-07-19T10:25:41;96742.44;;;33.65;25.05
10340;BME280;5215;48.676;9.022;2022-07-19T10:28:27;96732.53;;;33.17;25.13
10340;BME280;5215;48.676;9.022;2022-07-19T10:30:54;96737.34;;;33.03;24.37
10340;BME280;5215;48.676;9.022;2022-07-19T10:33:32;96733.47;;;33.39;25.54
10340;BME280;5215;48.676;9.022;2022-07-19T10:39:26;96725.44;;;33.86;24.03
10340;BME280;5215;48.676;9.022;2022-07-19T10:42:05;96718.59;;;34.18;24.28
10340;BME280;5215;48.676;9.022;2022-07-19T10:44:33;96724.31;;;34.34;23.73
10340;BME280;5215;48.676;9.022;2022-07-19T10:47:00;96721.63;;;34.63;23.50
10340;BME280;5215;48.676;9.022;2022-07-19T10:49:42;96716.84;;;34.60;23.11
10340;BME280;5215;48.676;9.022;2022-07-19T10:52:33;96722.97;;;34.57;23.13
10340;BME280;5215;48.676;9.022;2022-07-19T10:55:34;96715.03;;;34.94;23.35
10340;BME280;5215;48.676;9.022;2022-07-19T10:58:10;96714.00;;;35.07;23.04
10340;BME280;5215;48.676;9.022;2022-07-19T11:00:41;96699.31;;;35.33;23.68
10340;BME280;5215;48.676;9.022;2022-07-19T11:03:28;96697.41;;;35.66;22.72
10340;BME280;5215;48.676;9.022;2022-07-19T11:05:57;96698.25;;;35.46;22.28
10340;BME280;5215;48.676;9.022;2022-07-19T11:08:31;96706.75;;;35.65;21.51
10340;BME280;5215;48.676;9.022;2022-07-19T11:11:04;96703.84;;;35.49;21.62
10340;BME280;5215;48.676;9.022;2022-07-19T11:13:31;96697.00;;;35.22;22.17
10340;BME280;5215;48.676;9.022;2022-07-19T11:15:57;96694.91;;;35.61;21.87
10340;BME280;5215;48.676;9.022;2022-07-19T11:18:24;96690.63;;;35.72;21.75
10340;BME280;5215;48.676;9.022;2022-07-19T11:20:51;96701.78;;;35.80;22.12
10340;BME280;5215;48.676;9.022;2022-07-19T11:23:19;96697.38;;;35.54;22.24
10340;BME280;5215;48.676;9.022;2022-07-19T11:25:46;96684.25;;;35.93;21.80
10340;BME280;5215;48.676;9.022;2022-07-19T11:28:22;96688.44;;;36.23;21.84
10340;BME280;5215;48.676;9.022;2022-07-19T11:30:49;96688.66;;;36.31;21.74
10340;BME280;5215;48.676;9.022;2022-07-19T11:33:19;96673.59;;;36.00;21.22
10340;BME280;5215;48.676;9.022;2022-07-19T11:35:58;96678.28;;;35.66;21.46
10340;BME280;5215;48.676;9.022;2022-07-19T11:38:33;96671.94;;;35.74;21.55
10340;BME280;5215;48.676;9.022;2022-07-19T11:41:00;96666.81;;;35.40;22.16
10340;BME280;5215;48.676;9.022;2022-07-19T11:43:28;96666.78;;;36.06;22.35
10340;BME280;5215;48.676;9.022;2022-07-19T11:45:55;96661.53;;;36.13;21.93
10340;BME280;5215;48.676;9.022;2022-07-19T11:48:26;96662.47;;;35.72;21.23
10340;BME280;5215;48.676;9.022;2022-07-19T11:51:06;96671.00;;;36.16;20.79
10340;BME280;5215;48.676;9.022;2022-07-19T11:53:34;96658.38;;;35.33;21.75
10340;BME280;5215;48.676;9.022;2022-07-19T11:56:02;96658.09;;;36.04;22.11
10340;BME280;5215;48.676;9.022;2022-07-19T11:58:31;96664.19;;;35.76;20.50
10340;BME280;5215;48.676;9.022;2022-07-19T12:01:02;96656.53;;;36.03;21.14
10340;BME280;5215;48.676;9.022;2022-07-19T12:03:29;96659.94;;;36.37;21.60
10340;BME280;5215;48.676;9.022;2022-07-19T12:05:58;96643.97;;;36.75;20.74
10340;BME280;5215;48.676;9.022;2022-07-19T12:08:38;96653.56;;;36.57;20.34
10340;BME280;5215;48.676;9.022;2022-07-19T12:11:16;96647.50;;;36.76;20.98
10340;BME280;5215;48.676;9.022;2022-07-19T12:13:44;96649.97;;;35.71;20.75
10340;BME280;5215;48.676;9.022;2022-07-19T12:16:12;96648.06;;;35.84;21.29
10340;BME280;5215;48.676;9.022;2022-07-19T12:18:45;96643.53;;;36.37;21.31
10340;BME280;5215;48.676;9.022;2022-07-19T12:21:20;96628.63;;;36.87;21.56
10340;BME280;5215;48.676;9.022;2022-07-19T12:24:16;96632.25;;;36.63;20.80
10340;BME280;5215;48.676;9.022;2022-07-19T12:26:53;96628.91;;;36.69;20.66
10340;BME280;5215;48.676;9.022;2022-07-19T12:29:24;96627.34;;;35.95;20.90
10340;BME280;5215;48.676;9.022;2022-07-19T12:31:52;96625.94;;;35.76;21.61
10340;BME280;5215;48.676;9.022;2022-07-19T12:34:20;96619.81;;;36.41;21.17
10340;BME280;5215;48.676;9.022;2022-07-19T12:36:46;96626.91;;;36.17;20.95
10340;BME280;5215;48.676;9.022;2022-07-19T12:39:18;96626.44;;;35.91;21.42
10340;BME280;5215;48.676;9.022;2022-07-19T12:42:00;96616.31;;;36.16;21.39
10340;BME280;5215;48.676;9.022;2022-07-19T12:44:29;96604.41;;;36.61;21.86
10340;BME280;5215;48.676;9.022;2022-07-19T12:46:56;96618.72;;;36.17;21.18
10340;BME280;5215;48.676;9.022;2022-07-19T12:49:23;96614.16;;;36.09;21.23
10340;BME280;5215;48.676;9.022;2022-07-19T12:51:50;96612.31;;;36.13;21.75
10340;BME280;5215;48.676;9.022;2022-07-19T12:54:17;96604.03;;;36.74;22.42
10340;BME280;5215;48.676;9.022;2022-07-19T12:56:44;96600.28;;;37.07;21.03
10340;BME280;5215;48.676;9.022;2022-07-19T12:59:11;96602.81;;;37.12;20.94
10340;BME280;5215;48.676;9.022;2022-07-19T13:01:56;96610.16;;;37.24;21.38
10340;BME280;5215;48.676;9.022;2022-07-19T13:04:23;96609.97;;;37.45;21.04
10340;BME280;5215;48.676;9.022;2022-07-19T13:06:49;96601.72;;;36.48;20.99
10340;BME280;5215;48.676;9.022;2022-07-19T13:09:16;96601.34;;;37.02;21.39
10340;BME280;5215;48.676;9.022;2022-07-19T13:11:43;96599.03;;;37.17;20.93
10340;BME280;5215;48.676;9.022;2022-07-19T13:14:10;96596.28;;;37.45;21.34
10340;BME280;5215;48.676;9.022;2022-07-19T13:16:37;96598.09;;;36.85;20.43
10340;BME280;5215;48.676;9.022;2022-07-19T13:19:06;96583.78;;;36.75;20.26